Time;durP1;ratioP1;P1;durP2;ratioP2;P2;SDS_P1;SDS_P2;PMS_P1;PMS_P2;Temp;Humidity;BMP_temperature;BMP_pressure;BME280_temperature;BME280_humidity;BME280_pressure;Samples;Min_cycle;Max_cycle;Signal;HPM_P1;HPM_P2
2021/10/17 00:00:25;;;;;;;17.25;9.80;;;10.10;76.90;;;;;;5006440;28;20293;-74
2021/10/17 00:02:52;;;;;;;18.02;10.23;;;10.10;77.10;;;;;;5007926;28;20052;-72
2021/10/17 00:05:20;;;;;;;16.85;10.45;;;10.10;77.20;;;;;;5012671;28;20026;-73
2021/10/17 00:07:45;;;;;;;18.45;10.15;;;10.10;77.40;;;;;;5011155;28;20076;-73
2021/10/17 00:10:21;;;;;;;15.95;9.38;;;10.00;77.50;;;;;;5010378;28;20477;-77
2021/10/17 00:12:48;;;;;;;16.17;9.40;;;9.90;77.60;;;;;;5010189;28;20460;-72
2021/10/17 00:15:16;;;;;;;19.77;9.35;;;9.90;77.80;;;;;;5023034;28;20069;-74
2021/10/17 00:17:43;;;;;;;17.95;10.38;;;9.90;78.10;;;;;;5022394;28;20121;-74
2021/10/17 00:20:11;;;;;;;18.38;10.18;;;10.00;78.30;;;;;;5008329;28;20473;-74
2021/10/17 00:22:38;;;;;;;19.63;10.40;;;10.00;78.30;;;;;;5009416;28;20401;-76
2021/10/17 00:25:05;;;;;;;17.05;9.23;;;10.00;78.50;;;;;;5012839;28;20026;-72
2021/10/17 00:27:31;;;;;;;16.30;8.65;;;9.90;78.50;;;;;;5010895;28;20038;-73
2021/10/17 00:29:56;;;;;;;14.05;9.45;;;9.90;78.60;;;;;;5013339;28;20061;-73
2021/10/17 00:32:22;;;;;;;19.33;10.40;;;9.90;78.70;;;;;;5012220;28;20065;-73
2021/10/17 00:34:48;;;;;;;17.65;9.32;;;9.90;78.80;;;;;;5010236;28;20512;-72
2021/10/17 00:37:16;;;;;;;19.08;9.77;;;9.90;79.00;;;;;;5011437;28;20038;-75
2021/10/17 00:39:42;;;;;;;16.00;9.43;;;9.90;79.10;;;;;;5008694;28;20362;-73
2021/10/17 00:42:07;;;;;;;17.95;9.02;;;9.90;79.20;;;;;;5006932;28;20038;-72
2021/10/17 00:44:34;;;;;;;19.73;9.73;;;9.90;79.10;;;;;;5008113;28;20088;-73
2021/10/17 00:46:59;;;;;;;16.92;10.05;;;10.00;79.10;;;;;;5007360;28;20661;-73
2021/10/17 00:49:26;;;;;;;24.38;11.05;;;10.00;78.90;;;;;;5008564;28;20408;-73
2021/10/17 00:51:52;;;;;;;19.95;10.13;;;10.00;78.60;;;;;;5010866;28;20527;-74
2021/10/17 00:54:17;;;;;;;19.13;9.45;;;10.00;78.60;;;;;;5003218;28;20030;-74
2021/10/17 00:56:45;;;;;;;18.25;9.27;;;10.10;78.50;;;;;;5025874;28;21157;-73
2021/10/17 00:59:12;;;;;;;19.02;9.52;;;10.10;78.50;;;;;;5009348;28;20465;-78
2021/10/17 01:01:38;;;;;;;17.17;9.70;;;10.10;78.60;;;;;;5007608;28;20033;-79
2021/10/17 01:04:04;;;;;;;22.05;10.32;;;10.10;78.30;;;;;;5007043;28;20033;-76
2021/10/17 01:06:30;;;;;;;20.83;9.75;;;10.10;78.30;;;;;;5008769;28;20485;-75
2021/10/17 01:08:57;;;;;;;18.90;9.63;;;10.20;78.00;;;;;;5007187;28;20053;-72
2021/10/17 01:11:22;;;;;;;16.73;9.25;;;10.10;78.00;;;;;;5008312;28;20061;-73
2021/10/17 01:13:49;;;;;;;18.63;9.63;;;10.20;78.00;;;;;;5007829;28;20089;-73
2021/10/17 01:16:15;;;;;;;19.55;9.88;;;10.20;78.10;;;;;;5007408;28;20048;-75
2021/10/17 01:18:40;;;;;;;19.70;10.75;;;10.20;78.10;;;;;;5011973;28;20449;-80
2021/10/17 01:21:06;;;;;;;13.55;9.18;;;10.20;78.10;;;;;;5012102;28;20038;-75
2021/10/17 01:23:32;;;;;;;19.17;10.15;;;10.20;78.20;;;;;;5009299;28;20350;-72
2021/10/17 01:25:57;;;;;;;16.50;10.07;;;10.20;78.20;;;;;;5007420;28;20767;-74
2021/10/17 01:28:23;;;;;;;19.27;9.85;;;10.20;78.40;;;;;;5009038;28;20108;-73
2021/10/17 01:30:50;;;;;;;17.63;10.10;;;10.20;78.50;;;;;;5010734;28;20041;-73
2021/10/17 01:33:16;;;;;;;19.20;10.00;;;10.30;78.60;;;;;;5007817;28;20389;-78
2021/10/17 01:35:42;;;;;;;20.80;10.38;;;10.20;78.70;;;;;;5009071;28;20053;-78
2021/10/17 01:38:10;;;;;;;18.23;10.20;;;10.20;78.80;;;;;;5007396;28;20034;-77
2021/10/17 01:40:36;;;;;;;17.48;9.63;;;10.20;78.90;;;;;;5008354;28;20414;-73
2021/10/17 01:43:02;;;;;;;18.83;9.73;;;10.20;79.10;;;;;;5008168;28;20031;-73
2021/10/17 01:45:28;;;;;;;17.75;9.88;;;10.20;79.20;;;;;;5009038;28;20042;-73
2021/10/17 01:47:53;;;;;;;19.38;10.95;;;10.20;79.30;;;;;;5007907;28;20046;-73
2021/10/17 01:50:20;;;;;;;19.77;10.75;;;10.20;79.20;;;;;;5008231;28;20457;-74
2021/10/17 01:52:46;;;;;;;23.30;10.60;;;10.20;79.10;;;;;;5009184;28;20523;-72
2021/10/17 01:55:12;;;;;;;20.45;10.65;;;10.20;79.00;;;;;;5007627;28;20050;-74
2021/10/17 01:57:39;;;;;;;20.67;11.10;;;10.20;79.00;;;;;;5008476;28;20038;-74
2021/10/17 02:00:06;;;;;;;18.48;10.52;;;10.20;78.70;;;;;;5007772;28;20080;-74
2021/10/17 02:02:32;;;;;;;16.88;10.10;;;10.20;78.70;;;;;;5007731;28;20049;-73
2021/10/17 02:04:57;;;;;;;31.10;11.90;;;10.20;78.80;;;;;;5009650;28;20218;-76
2021/10/17 02:07:24;;;;;;;18.92;11.30;;;10.10;78.90;;;;;;5007269;28;20117;-74
2021/10/17 02:09:49;;;;;;;28.00;12.50;;;10.20;79.00;;;;;;5002951;28;20042;-73
2021/10/17 02:12:17;;;;;;;23.83;12.50;;;10.20;79.10;;;;;;5005837;28;20676;-74
2021/10/17 02:14:43;;;;;;;19.98;11.30;;;10.20;79.20;;;;;;5005881;28;20030;-73
2021/10/17 02:17:09;;;;;;;21.80;12.35;;;10.20;79.30;;;;;;5005464;28;20093;-73
2021/10/17 02:19:35;;;;;;;22.63;11.80;;;10.10;79.60;;;;;;5009354;28;20018;-73
2021/10/17 02:22:00;;;;;;;24.85;12.27;;;10.10;79.70;;;;;;5010035;28;20528;-73
2021/10/17 02:24:26;;;;;;;18.98;12.85;;;10.10;79.80;;;;;;5011023;28;20034;-74
2021/10/17 02:26:52;;;;;;;20.00;11.80;;;10.10;79.80;;;;;;5016137;28;20026;-73
2021/10/17 02:29:17;;;;;;;21.77;12.23;;;10.20;79.60;;;;;;5013526;28;20039;-74
2021/10/17 02:31:43;;;;;;;22.73;11.45;;;10.20;79.60;;;;;;5008529;28;20358;-72
2021/10/17 02:34:09;;;;;;;23.02;11.85;;;10.20;79.50;;;;;;5007325;28;20057;-72
2021/10/17 02:36:34;;;;;;;20.52;11.48;;;10.20;79.30;;;;;;5006233;28;20112;-74
2021/10/17 02:39:00;;;;;;;19.40;11.40;;;10.20;79.30;;;;;;5006885;28;20037;-75
2021/10/17 02:41:26;;;;;;;19.55;11.05;;;10.20;79.40;;;;;;5011220;28;20543;-75
2021/10/17 02:43:52;;;;;;;22.20;12.35;;;10.20;79.50;;;;;;5010509;28;20110;-72
2021/10/17 02:46:17;;;;;;;18.80;10.75;;;10.20;79.60;;;;;;5004607;28;20053;-73
2021/10/17 02:48:43;;;;;;;20.98;11.52;;;10.10;79.60;;;;;;5008750;28;20482;-74
2021/10/17 02:51:09;;;;;;;21.70;11.75;;;10.10;79.60;;;;;;5006848;28;20033;-73
2021/10/17 02:53:35;;;;;;;21.02;11.27;;;10.20;79.70;;;;;;5010550;28;20033;-73
2021/10/17 02:56:01;;;;;;;18.48;11.65;;;10.10;79.70;;;;;;5008318;28;20026;-76
2021/10/17 02:58:27;;;;;;;19.40;11.55;;;10.10;79.80;;;;;;5002882;28;20077;-77
2021/10/17 03:00:52;;;;;;;20.20;11.18;;;10.10;79.90;;;;;;5005089;28;20026;-73
2021/10/17 03:03:18;;;;;;;19.45;11.80;;;10.10;80.00;;;;;;5006927;28;20036;-73
2021/10/17 03:05:44;;;;;;;18.20;11.35;;;10.10;80.10;;;;;;5007729;28;20049;-73
2021/10/17 03:08:10;;;;;;;15.30;11.30;;;10.10;80.30;;;;;;5005505;28;20391;-73
2021/10/17 03:10:35;;;;;;;18.60;11.77;;;10.10;80.50;;;;;;5009487;28;20057;-77
2021/10/17 03:13:01;;;;;;;21.67;11.82;;;10.10;80.50;;;;;;5007952;28;20109;-73
2021/10/17 03:15:27;;;;;;;22.90;13.07;;;10.10;80.60;;;;;;5006534;28;20030;-72
2021/10/17 03:17:54;;;;;;;24.65;12.88;;;10.00;80.50;;;;;;5008583;28;20037;-72
2021/10/17 03:20:21;;;;;;;20.92;12.23;;;10.10;80.50;;;;;;5010891;28;20038;-73
2021/10/17 03:22:47;;;;;;;18.67;11.82;;;10.00;80.60;;;;;;5009202;28;20038;-72
2021/10/17 03:25:12;;;;;;;18.80;12.20;;;9.90;80.60;;;;;;5010689;28;20038;-74
2021/10/17 03:27:38;;;;;;;20.65;12.10;;;9.90;80.70;;;;;;5010847;28;20034;-74
2021/10/17 03:30:06;;;;;;;20.98;12.15;;;9.80;80.70;;;;;;5012375;28;20038;-73
2021/10/17 03:32:32;;;;;;;20.83;12.52;;;9.80;80.80;;;;;;5003234;28;20034;-77
2021/10/17 03:34:58;;;;;;;23.95;13.48;;;9.70;81.10;;;;;;5013145;28;20037;-72
2021/10/17 03:37:23;;;;;;;22.45;12.05;;;9.60;81.30;;;;;;5010068;28;20050;-73
2021/10/17 03:39:49;;;;;;;17.88;12.13;;;9.60;81.40;;;;;;5010580;28;20025;-72
2021/10/17 03:42:15;;;;;;;19.42;12.52;;;9.60;81.50;;;;;;5007458;28;20033;-72
2021/10/17 03:44:40;;;;;;;23.08;13.30;;;9.60;81.50;;;;;;5011685;28;20450;-73
2021/10/17 03:47:06;;;;;;;20.80;13.23;;;9.50;81.50;;;;;;5007787;28;20041;-74
2021/10/17 03:49:32;;;;;;;18.10;11.82;;;9.50;81.60;;;;;;5008558;28;20050;-73
2021/10/17 03:51:57;;;;;;;18.58;12.77;;;9.50;81.80;;;;;;5007953;28;20030;-72
2021/10/17 03:54:23;;;;;;;19.83;13.27;;;9.40;81.80;;;;;;5011225;28;20045;-72
2021/10/17 03:56:49;;;;;;;23.20;12.73;;;9.30;81.90;;;;;;5010592;28;20116;-74
2021/10/17 03:59:16;;;;;;;20.63;12.65;;;9.30;82.00;;;;;;5009043;28;20034;-75
2021/10/17 04:01:41;;;;;;;22.88;13.82;;;9.20;82.10;;;;;;5009191;28;20033;-74
2021/10/17 04:04:07;;;;;;;21.65;12.93;;;9.20;82.20;;;;;;5009760;28;20029;-73
2021/10/17 04:06:36;;;;;;;21.23;13.20;;;9.10;82.40;;;;;;5010000;28;20488;-73
2021/10/17 04:09:01;;;;;;;20.60;13.55;;;9.10;82.50;;;;;;5007728;28;20025;-77
2021/10/17 04:11:27;;;;;;;21.80;13.48;;;9.00;82.70;;;;;;5009900;28;20049;-73
2021/10/17 04:13:53;;;;;;;21.98;13.98;;;9.00;82.80;;;;;;5009774;28;20522;-73
2021/10/17 04:16:18;;;;;;;23.00;13.55;;;9.00;82.80;;;;;;5010431;28;20078;-73
2021/10/17 04:18:44;;;;;;;23.73;14.38;;;9.00;82.90;;;;;;5009079;28;20133;-72
2021/10/17 04:21:10;;;;;;;24.30;13.75;;;8.80;83.00;;;;;;5010198;28;20034;-72
2021/10/17 04:23:35;;;;;;;21.42;13.73;;;8.80;83.10;;;;;;5006052;28;20041;-73
2021/10/17 04:26:01;;;;;;;22.77;13.63;;;8.80;83.20;;;;;;5010511;28;20037;-74
2021/10/17 04:28:27;;;;;;;19.67;14.38;;;8.80;83.20;;;;;;5012913;28;20033;-74
2021/10/17 04:30:52;;;;;;;22.98;14.20;;;8.80;83.20;;;;;;5006338;28;20065;-74
2021/10/17 04:33:18;;;;;;;20.73;13.75;;;8.80;83.20;;;;;;5007835;28;20069;-73
2021/10/17 04:35:44;;;;;;;21.77;14.10;;;8.80;83.30;;;;;;5004064;28;20462;-72
2021/10/17 04:38:10;;;;;;;21.83;14.45;;;8.80;83.30;;;;;;5009223;28;20037;-73
2021/10/17 04:40:37;;;;;;;29.55;14.82;;;8.80;83.30;;;;;;5009307;28;20035;-75
2021/10/17 04:43:03;;;;;;;18.83;13.60;;;8.70;83.30;;;;;;5005885;28;20033;-73
2021/10/17 04:45:29;;;;;;;22.17;13.88;;;8.70;83.50;;;;;;5009490;28;20458;-72
2021/10/17 04:47:55;;;;;;;25.73;14.07;;;8.70;83.40;;;;;;5008281;28;20037;-72
2021/10/17 04:50:21;;;;;;;22.40;14.85;;;8.70;83.50;;;;;;5008269;28;20049;-72
2021/10/17 04:52:47;;;;;;;23.63;14.43;;;8.70;83.50;;;;;;5006788;28;20030;-74
2021/10/17 04:55:13;;;;;;;23.05;14.98;;;8.70;83.50;;;;;;5009055;28;20412;-72
2021/10/17 04:57:39;;;;;;;24.27;15.02;;;8.60;83.40;;;;;;5010512;28;20030;-74
2021/10/17 05:00:08;;;;;;;23.75;15.07;;;8.60;83.40;;;;;;5009828;28;20452;-72
2021/10/17 05:02:33;;;;;;;20.48;14.15;;;8.60;83.40;;;;;;5007651;28;20113;-72
2021/10/17 05:04:59;;;;;;;18.92;13.27;;;8.60;83.40;;;;;;5008792;28;20113;-74
2021/10/17 05:07:25;;;;;;;19.08;14.23;;;8.60;83.50;;;;;;5007239;28;20802;-77
2021/10/17 05:09:50;;;;;;;22.05;14.15;;;8.60;83.60;;;;;;5010722;28;20487;-76
2021/10/17 05:12:16;;;;;;;20.58;14.15;;;8.50;83.70;;;;;;5008111;28;20030;-72
2021/10/17 05:14:41;;;;;;;22.73;14.90;;;8.50;83.70;;;;;;5009299;28;20030;-73
2021/10/17 05:17:07;;;;;;;21.15;13.57;;;8.40;83.70;;;;;;5006613;28;20124;-72
2021/10/17 05:19:33;;;;;;;21.15;14.25;;;8.40;83.90;;;;;;5008699;28;20357;-72
2021/10/17 05:21:58;;;;;;;22.85;14.10;;;8.40;84.10;;;;;;5009543;28;20065;-73
2021/10/17 05:24:24;;;;;;;21.85;14.93;;;8.40;84.10;;;;;;5008245;28;20033;-72
2021/10/17 05:26:50;;;;;;;20.20;14.23;;;8.30;84.10;;;;;;5005175;28;20072;-73
2021/10/17 05:29:15;;;;;;;22.08;13.07;;;8.30;84.30;;;;;;5007095;28;20029;-75
2021/10/17 05:31:41;;;;;;;23.98;14.70;;;8.30;84.30;;;;;;5008649;28;20038;-74
2021/10/17 05:34:07;;;;;;;21.50;14.98;;;8.20;84.40;;;;;;5008473;28;20105;-73
2021/10/17 05:36:34;;;;;;;20.02;13.90;;;8.20;84.50;;;;;;5009531;28;20041;-74
2021/10/17 05:39:00;;;;;;;22.38;15.25;;;8.20;84.50;;;;;;5008099;28;20057;-72
2021/10/17 05:41:27;;;;;;;21.92;14.75;;;8.20;84.40;;;;;;5006075;28;20373;-71
2021/10/17 05:43:52;;;;;;;22.33;15.20;;;8.10;84.40;;;;;;5011242;28;20022;-73
2021/10/17 05:46:18;;;;;;;23.77;14.55;;;8.10;84.50;;;;;;5006636;28;20053;-72
2021/10/17 05:48:44;;;;;;;24.52;15.65;;;8.10;84.60;;;;;;5008161;28;20029;-74
2021/10/17 05:51:10;;;;;;;21.02;15.05;;;8.10;84.60;;;;;;5018455;28;20496;-74
2021/10/17 05:53:35;;;;;;;26.08;15.77;;;8.10;84.60;;;;;;5008963;28;20037;-74
2021/10/17 05:56:01;;;;;;;23.92;14.98;;;8.10;84.70;;;;;;5006305;28;20022;-73
2021/10/17 05:58:26;;;;;;;22.27;15.40;;;8.10;84.70;;;;;;5009936;28;20026;-82
2021/10/17 06:00:52;;;;;;;22.95;14.82;;;8.10;84.70;;;;;;5005494;28;20069;-74
2021/10/17 06:03:18;;;;;;;20.73;14.48;;;8.00;84.60;;;;;;5006067;28;20125;-74
2021/10/17 06:05:46;;;;;;;20.30;14.85;;;8.00;84.50;;;;;;5006887;28;20026;-74
2021/10/17 06:08:12;;;;;;;23.17;15.48;;;8.00;84.50;;;;;;5005072;28;20473;-73
2021/10/17 06:10:40;;;;;;;24.52;14.90;;;8.00;84.60;;;;;;5005816;28;20080;-73
2021/10/17 06:13:06;;;;;;;25.42;17.23;;;8.00;84.60;;;;;;5007758;28;20033;-76
2021/10/17 06:15:32;;;;;;;22.27;15.00;;;8.00;84.60;;;;;;5007454;28;20124;-75
2021/10/17 06:17:57;;;;;;;23.27;16.17;;;8.00;84.60;;;;;;5004385;28;20025;-73
2021/10/17 06:20:24;;;;;;;25.85;17.48;;;8.00;84.50;;;;;;5004742;28;20045;-73
2021/10/17 06:22:49;;;;;;;23.42;15.73;;;8.00;84.50;;;;;;5005315;28;20028;-73
2021/10/17 06:25:15;;;;;;;24.85;16.40;;;8.00;84.40;;;;;;5010776;28;20030;-71
2021/10/17 06:27:40;;;;;;;23.63;16.42;;;8.10;84.40;;;;;;5007207;28;20109;-78
2021/10/17 06:30:06;;;;;;;26.38;18.17;;;8.10;84.40;;;;;;5007461;28;20129;-75
2021/10/17 06:32:32;;;;;;;26.23;16.60;;;8.10;84.40;;;;;;5008265;28;20033;-73
2021/10/17 06:34:57;;;;;;;26.20;16.75;;;8.10;84.20;;;;;;5004350;28;20034;-73
2021/10/17 06:37:23;;;;;;;27.50;17.83;;;8.10;84.20;;;;;;5000870;28;20046;-73
2021/10/17 06:39:49;;;;;;;24.83;16.65;;;8.10;84.20;;;;;;5006624;28;20427;-76
2021/10/17 06:42:14;;;;;;;33.15;21.13;;;8.10;84.10;;;;;;4998051;28;20045;-75
2021/10/17 06:44:40;;;;;;;29.90;19.52;;;8.20;83.90;;;;;;5004751;28;20038;-75
2021/10/17 06:47:06;;;;;;;27.58;19.23;;;8.20;84.10;;;;;;5005628;28;20080;-75
2021/10/17 06:49:32;;;;;;;29.80;20.65;;;8.30;84.00;;;;;;5009264;28;20034;-73
2021/10/17 06:51:57;;;;;;;26.98;18.75;;;8.40;83.70;;;;;;5005791;28;20038;-76
2021/10/17 06:54:23;;;;;;;28.23;19.50;;;8.50;83.70;;;;;;5005374;28;20426;-73
2021/10/17 06:56:49;;;;;;;29.27;18.52;;;8.60;83.50;;;;;;5005890;28;20546;-73
2021/10/17 06:59:14;;;;;;;23.20;16.80;;;8.60;83.10;;;;;;5010646;28;20405;-70
2021/10/17 07:01:40;;;;;;;25.08;16.67;;;8.60;83.20;;;;;;5007728;28;20041;-74
2021/10/17 07:04:06;;;;;;;26.20;17.70;;;8.70;82.90;;;;;;5006334;28;20030;-73
2021/10/17 07:06:31;;;;;;;29.13;19.52;;;8.70;83.00;;;;;;5005585;28;20034;-73
2021/10/17 07:08:57;;;;;;;29.13;18.70;;;8.80;83.00;;;;;;5007458;28;20416;-69
2021/10/17 07:11:23;;;;;;;25.17;17.80;;;8.90;82.80;;;;;;5006424;28;20042;-74
2021/10/17 07:13:49;;;;;;;24.05;18.10;;;9.00;82.70;;;;;;4997223;28;20736;-72
2021/10/17 07:16:14;;;;;;;27.63;18.27;;;9.00;82.60;;;;;;5002195;28;20061;-73
2021/10/17 07:18:41;;;;;;;27.42;18.23;;;9.00;82.10;;;;;;5005555;28;20026;-72
2021/10/17 07:21:07;;;;;;;25.45;17.02;;;9.10;82.30;;;;;;5022980;28;20026;-72
2021/10/17 07:23:33;;;;;;;23.05;16.70;;;9.10;81.80;;;;;;5005799;28;20037;-72
2021/10/17 07:25:58;;;;;;;27.48;17.30;;;9.10;82.00;;;;;;5006075;28;20034;-76
2021/10/17 07:28:24;;;;;;;27.75;17.35;;;9.20;81.80;;;;;;5002337;28;20030;-73
2021/10/17 07:30:50;;;;;;;25.25;16.02;;;9.30;81.70;;;;;;5007027;28;20143;-76
2021/10/17 07:33:15;;;;;;;22.58;15.55;;;9.40;81.50;;;;;;5005342;28;20034;-72
2021/10/17 07:35:41;;;;;;;20.15;13.98;;;9.60;81.50;;;;;;5011121;28;20433;-73
2021/10/17 07:38:07;;;;;;;22.73;14.65;;;9.60;81.00;;;;;;5005755;28;20030;-74
2021/10/17 07:40:33;;;;;;;22.27;15.43;;;9.70;80.80;;;;;;5007816;28;20032;-76
2021/10/17 07:42:58;;;;;;;22.48;15.02;;;9.90;80.60;;;;;;5004598;28;20037;-75
2021/10/17 07:45:24;;;;;;;23.05;14.30;;;9.90;80.10;;;;;;5002169;28;20046;-76
2021/10/17 07:47:50;;;;;;;24.25;14.77;;;10.00;79.60;;;;;;5005997;28;20026;-74
2021/10/17 07:50:16;;;;;;;23.80;15.27;;;10.10;79.30;;;;;;5005043;28;20050;-73
2021/10/17 07:52:41;;;;;;;21.95;13.95;;;10.20;78.80;;;;;;5007229;28;20080;-73
2021/10/17 07:55:07;;;;;;;20.83;13.57;;;10.40;79.30;;;;;;5004043;28;20018;-78
2021/10/17 07:57:50;;;;;;;20.20;13.80;;;10.50;78.40;;;;;;5005861;28;21373;-73
2021/10/17 08:00:20;;;;;;;20.23;12.18;;;10.60;77.90;;;;;;5004336;28;20040;-73
2021/10/17 08:02:47;;;;;;;18.98;13.45;;;10.80;77.50;;;;;;5007953;28;20027;-73
2021/10/17 08:05:12;;;;;;;17.25;12.70;;;11.00;77.20;;;;;;5008468;28;20046;-73
2021/10/17 08:07:38;;;;;;;19.00;11.90;;;11.10;76.30;;;;;;5010263;28;20139;-79
2021/10/17 08:10:05;;;;;;;19.88;12.07;;;11.30;75.90;;;;;;5004811;28;20041;-73
2021/10/17 08:12:31;;;;;;;19.90;11.85;;;11.50;75.20;;;;;;5004674;28;20046;-74
2021/10/17 08:14:56;;;;;;;19.02;11.65;;;11.60;74.30;;;;;;5006296;28;20131;-73
2021/10/17 08:17:22;;;;;;;19.00;11.13;;;11.80;73.60;;;;;;5005598;28;20034;-76
2021/10/17 08:19:47;;;;;;;19.35;11.10;;;11.90;73.40;;;;;;5002169;28;20041;-74
2021/10/17 08:22:13;;;;;;;20.42;10.77;;;12.00;72.40;;;;;;5004139;28;20479;-73
2021/10/17 08:24:39;;;;;;;18.25;11.13;;;12.10;72.50;;;;;;5008518;28;20042;-75
2021/10/17 08:27:05;;;;;;;17.92;10.75;;;12.10;72.00;;;;;;5003292;28;20030;-73
2021/10/17 08:29:31;;;;;;;15.40;10.45;;;12.20;71.80;;;;;;5012280;28;20022;-72
2021/10/17 08:31:56;;;;;;;14.95;10.40;;;12.20;71.40;;;;;;5009997;28;20787;-70
2021/10/17 08:34:22;;;;;;;20.42;12.27;;;12.30;71.60;;;;;;5007879;28;20076;-82
2021/10/17 08:36:48;;;;;;;19.10;11.38;;;12.40;72.10;;;;;;5006925;28;20038;-73
2021/10/17 08:39:13;;;;;;;17.23;10.82;;;12.50;71.00;;;;;;5003723;28;20105;-73
2021/10/17 08:41:39;;;;;;;16.90;10.93;;;12.50;71.30;;;;;;5007830;28;20042;-78
2021/10/17 08:44:05;;;;;;;18.17;11.20;;;12.60;71.40;;;;;;5006204;28;20105;-71
2021/10/17 08:46:33;;;;;;;17.38;10.63;;;12.70;70.20;;;;;;5008703;28;20065;-72
2021/10/17 08:48:59;;;;;;;17.88;11.82;;;12.70;70.20;;;;;;5008548;28;20042;-73
2021/10/17 08:51:26;;;;;;;17.20;11.15;;;12.80;69.80;;;;;;5009772;28;20128;-72
2021/10/17 08:53:52;;;;;;;16.85;11.27;;;12.90;69.50;;;;;;5006823;28;20555;-72
2021/10/17 08:56:19;;;;;;;18.20;10.70;;;12.90;69.40;;;;;;5008332;28;20077;-72
2021/10/17 08:58:44;;;;;;;14.77;10.35;;;13.00;69.80;;;;;;5007873;28;20064;-73
2021/10/17 09:01:18;;;;;;;21.17;11.80;;;12.90;69.70;;;;;;5007855;28;20053;-74
2021/10/17 09:04:01;;;;;;;16.63;10.68;;;12.90;69.50;;;;;;5007984;28;20124;-72
2021/10/17 09:06:29;;;;;;;15.70;10.15;;;13.00;69.80;;;;;;4999080;28;20031;-73
2021/10/17 09:09:05;;;;;;;18.00;9.85;;;13.00;69.60;;;;;;5007557;28;20109;-72
2021/10/17 09:11:44;;;;;;;18.25;10.57;;;13.10;69.50;;;;;;4999220;28;20045;-72
2021/10/17 09:14:11;;;;;;;16.30;10.02;;;13.00;69.70;;;;;;5002089;28;20042;-73
2021/10/17 09:16:39;;;;;;;20.98;10.40;;;13.00;69.10;;;;;;5001564;28;20045;-72
2021/10/17 09:19:08;;;;;;;18.80;11.00;;;13.10;68.90;;;;;;5008864;28;20055;-72
2021/10/17 09:21:35;;;;;;;16.75;10.10;;;13.20;68.60;;;;;;5008956;28;20037;-72
2021/10/17 09:24:00;;;;;;;17.08;9.55;;;13.30;69.40;;;;;;5007842;28;20042;-73
2021/10/17 09:26:26;;;;;;;15.55;10.15;;;13.50;68.80;;;;;;5004949;28;20428;-70
2021/10/17 09:28:53;;;;;;;16.27;10.55;;;13.40;68.40;;;;;;5005403;28;20049;-73
2021/10/17 09:31:20;;;;;;;18.38;10.15;;;13.30;68.10;;;;;;5000564;28;20293;-72
2021/10/17 09:33:49;;;;;;;14.68;10.07;;;13.40;68.40;;;;;;5006518;28;20030;-73
2021/10/17 09:36:26;;;;;;;16.95;10.45;;;13.50;68.40;;;;;;4999061;28;20510;-74
2021/10/17 09:38:56;;;;;;;18.25;10.25;;;13.50;67.90;;;;;;5002468;28;20038;-71
2021/10/17 09:41:32;;;;;;;15.80;10.20;;;13.60;67.90;;;;;;5005312;28;20420;-73
2021/10/17 09:43:59;;;;;;;19.65;10.65;;;13.70;67.70;;;;;;5007449;28;20033;-71
2021/10/17 09:46:27;;;;;;;17.85;10.10;;;13.70;68.60;;;;;;5002764;28;20121;-72
2021/10/17 09:48:53;;;;;;;16.63;10.30;;;13.70;67.80;;;;;;5003726;28;20358;-73
2021/10/17 09:51:22;;;;;;;17.48;10.23;;;13.90;67.90;;;;;;5005530;28;20036;-72
2021/10/17 09:53:50;;;;;;;16.23;9.95;;;14.00;67.60;;;;;;5005585;28;20385;-73
2021/10/17 09:56:43;;;;;;;19.83;9.88;;;14.00;68.00;;;;;;5007239;28;20045;-71
2021/10/17 09:59:13;;;;;;;18.33;10.18;;;14.20;67.10;;;;;;5005961;28;20045;-71
2021/10/17 10:01:41;;;;;;;16.17;10.23;;;14.20;66.70;;;;;;5002255;28;20103;-71
2021/10/17 10:04:10;;;;;;;13.98;9.50;;;14.30;67.50;;;;;;5006713;28;20116;-70
2021/10/17 10:06:36;;;;;;;16.38;9.52;;;14.50;67.70;;;;;;5009852;28;20045;-71
2021/10/17 10:09:09;;;;;;;14.82;9.80;;;14.60;66.10;;;;;;5002617;28;20022;-71
2021/10/17 10:11:37;;;;;;;16.23;9.77;;;14.60;66.10;;;;;;5006001;28;20143;-71
2021/10/17 10:14:09;;;;;;;13.10;9.15;;;14.60;65.50;;;;;;5007142;28;20551;-70
2021/10/17 10:16:36;;;;;;;15.65;9.82;;;14.60;66.60;;;;;;5004351;28;20071;-71
2021/10/17 10:19:08;;;;;;;14.98;9.05;;;14.70;66.40;;;;;;4999776;28;20025;-70
2021/10/17 10:21:35;;;;;;;13.95;9.18;;;14.90;65.70;;;;;;5007352;28;20318;-72
2021/10/17 10:24:07;;;;;;;16.70;8.82;;;14.70;64.70;;;;;;4998903;28;20117;-72
2021/10/17 10:26:34;;;;;;;14.73;8.23;;;14.70;65.60;;;;;;5003012;28;20030;-73
2021/10/17 10:29:00;;;;;;;13.70;8.10;;;14.70;65.70;;;;;;5000729;28;20030;-72
2021/10/17 10:31:41;;;;;;;12.30;7.68;;;14.70;65.60;;;;;;4997219;28;20038;-72
2021/10/17 10:34:07;;;;;;;11.18;7.00;;;14.80;64.20;;;;;;5000675;28;20049;-73
2021/10/17 10:36:45;;;;;;;12.82;8.00;;;14.80;64.30;;;;;;5015420;28;20029;-72
2021/10/17 10:39:38;;;;;;;12.70;7.18;;;15.00;64.20;;;;;;5004797;28;20144;-72
2021/10/17 10:42:17;;;;;;;12.02;6.93;;;14.90;64.20;;;;;;4997824;28;20125;-72
2021/10/17 10:44:42;;;;;;;12.20;7.18;;;15.00;63.40;;;;;;5004375;28;20106;-72
2021/10/17 10:47:41;;;;;;;10.93;7.07;;;15.10;64.30;;;;;;5004409;28;20049;-72
2021/10/17 10:50:06;;;;;;;14.32;7.88;;;15.30;64.60;;;;;;4976410;28;20141;-71
2021/10/17 10:52:36;;;;;;;14.60;8.15;;;15.40;64.50;;;;;;5006986;28;20031;-72
2021/10/17 10:55:32;;;;;;;12.93;8.50;;;15.50;64.40;;;;;;5002027;28;20077;-72
2021/10/17 10:58:25;;;;;;;16.90;7.25;;;15.60;63.60;;;;;;5005909;28;20120;-72
2021/10/17 11:00:52;;;;;;;13.18;7.30;;;15.50;62.60;;;;;;5000495;28;20030;-72
2021/10/17 11:03:19;;;;;;;10.48;6.85;;;15.50;62.50;;;;;;4991470;28;20549;-75
2021/10/17 11:06:06;;;;;;;13.25;7.22;;;15.50;62.50;;;;;;5013448;28;20058;-71
2021/10/17 11:08:33;;;;;;;15.88;7.07;;;15.50;62.10;;;;;;4993938;28;20034;-73
2021/10/17 11:10:59;;;;;;;13.20;7.10;;;15.60;62.60;;;;;;4996526;28;20056;-72
2021/10/17 11:13:35;;;;;;;12.52;6.97;;;15.80;62.70;;;;;;5003410;28;20045;-73
2021/10/17 11:16:03;;;;;;;13.25;7.15;;;15.90;62.00;;;;;;5004584;28;20555;-73
2021/10/17 11:18:31;;;;;;;16.98;7.07;;;15.90;61.30;;;;;;5000811;28;20092;-73
2021/10/17 11:20:57;;;;;;;11.68;7.05;;;15.90;61.10;;;;;;5000992;28;20042;-73
2021/10/17 11:23:28;;;;;;;12.32;6.90;;;15.90;61.10;;;;;;4997508;28;20031;-73
2021/10/17 11:26:04;;;;;;;12.65;6.15;;;16.00;61.30;;;;;;5015148;28;20104;-73
2021/10/17 11:28:31;;;;;;;10.82;6.32;;;16.10;60.80;;;;;;5000337;28;20042;-75
2021/10/17 11:31:11;;;;;;;12.02;6.13;;;16.30;61.80;;;;;;5020174;28;20582;-73
2021/10/17 11:33:40;;;;;;;12.43;6.68;;;16.30;61.10;;;;;;5001379;28;20050;-76
2021/10/17 11:36:08;;;;;;;13.35;7.25;;;16.30;59.40;;;;;;5019849;28;20053;-74
2021/10/17 11:38:34;;;;;;;12.68;7.07;;;16.30;60.00;;;;;;4996745;28;21563;-72
2021/10/17 11:41:12;;;;;;;12.32;6.65;;;16.20;59.60;;;;;;5016179;28;20026;-72
2021/10/17 11:43:49;;;;;;;11.15;6.53;;;16.20;59.90;;;;;;5003995;28;20033;-71
2021/10/17 11:46:18;;;;;;;11.63;6.65;;;16.30;59.10;;;;;;5006681;28;20038;-72
2021/10/17 11:48:45;;;;;;;11.73;6.55;;;16.40;60.20;;;;;;5019688;28;20096;-76
2021/10/17 11:51:13;;;;;;;9.35;6.18;;;16.40;59.30;;;;;;4997809;28;20042;-73
2021/10/17 11:53:39;;;;;;;14.40;6.65;;;16.50;59.70;;;;;;5006926;28;20034;-71
2021/10/17 11:56:09;;;;;;;11.60;6.38;;;16.60;60.00;;;;;;5020197;28;20440;-73
2021/10/17 11:58:36;;;;;;;10.15;6.25;;;16.50;59.60;;;;;;5010764;28;20034;-76
2021/10/17 12:01:13;;;;;;;13.05;6.10;;;16.50;58.40;;;;;;5009825;28;20030;-74
2021/10/17 12:03:41;;;;;;;13.40;7.55;;;16.50;58.70;;;;;;5004802;28;20375;-76
2021/10/17 12:06:18;;;;;;;12.85;6.18;;;16.60;58.60;;;;;;5002879;28;20041;-75
2021/10/17 12:08:55;;;;;;;11.23;6.40;;;16.60;58.00;;;;;;5002366;28;20125;-73
2021/10/17 12:11:22;;;;;;;13.65;6.68;;;16.60;57.90;;;;;;4998737;28;26287;-72
2021/10/17 12:13:49;;;;;;;12.68;5.43;;;16.50;57.00;;;;;;5004236;28;20040;-76
2021/10/17 12:16:17;;;;;;;11.18;6.20;;;16.50;57.20;;;;;;4999989;28;20068;-73
2021/10/17 12:18:46;;;;;;;15.93;6.40;;;16.60;57.50;;;;;;5000417;28;20350;-73
2021/10/17 12:21:15;;;;;;;12.30;7.50;;;16.50;58.10;;;;;;4999863;28;20045;-74
2021/10/17 12:23:43;;;;;;;10.98;6.95;;;16.50;57.20;;;;;;5000867;28;20038;-73
2021/10/17 12:26:17;;;;;;;11.88;6.28;;;16.50;57.60;;;;;;4998650;28;20540;-77
2021/10/17 12:28:43;;;;;;;10.00;5.90;;;16.40;58.60;;;;;;5000660;28;20037;-73
2021/10/17 12:31:09;;;;;;;13.50;5.88;;;16.50;57.70;;;;;;5001757;28;20030;-75
2021/10/17 12:33:37;;;;;;;10.65;6.18;;;16.50;57.90;;;;;;4997187;28;20041;-76